Time;durP1;ratioP1;P1;durP2;ratioP2;P2;SDS_P1;SDS_P2;PMS_P1;PMS_P2;Temp;Humidity;BMP_temperature;BMP_pressure;BME280_temperature;BME280_humidity;BME280_pressure;Samples;Min_cycle;Max_cycle;Signal;HPM_P1;HPM_P2
2022/12/03 00:00:54;;;;;;;53.83;23.73;;;1.30;99.90;;;;;;5063145;28;20195;-85
2022/12/03 00:03:21;;;;;;;50.97;22.93;;;1.30;99.90;;;;;;5062205;28;20217;-83
2022/12/03 00:05:48;;;;;;;51.53;20.20;;;1.30;99.90;;;;;;5064666;28;20214;-84
2022/12/03 00:08:15;;;;;;;51.60;20.40;;;1.20;99.90;;;;;;5066526;28;20199;-84
2022/12/03 00:10:41;;;;;;;58.07;23.17;;;1.20;99.90;;;;;;5064793;28;20203;-84
2022/12/03 00:13:08;;;;;;;52.17;21.83;;;1.20;99.90;;;;;;5078048;28;20223;-83
2022/12/03 00:15:36;;;;;;;51.83;21.93;;;1.20;99.90;;;;;;5068287;28;20225;-84
2022/12/03 00:18:03;;;;;;;53.03;21.90;;;1.20;99.90;;;;;;5064372;28;20202;-84
2022/12/03 00:20:30;;;;;;;49.53;21.63;;;1.20;99.90;;;;;;5067036;28;20202;-83
2022/12/03 00:22:57;;;;;;;54.63;23.07;;;1.20;99.90;;;;;;5064237;28;20194;-83
2022/12/03 00:25:24;;;;;;;53.97;22.97;;;1.20;99.90;;;;;;5072484;28;20201;-83
2022/12/03 00:27:50;;;;;;;52.87;20.57;;;1.20;99.90;;;;;;5069808;28;20194;-84
2022/12/03 00:30:17;;;;;;;46.37;18.03;;;1.20;99.90;;;;;;5075419;28;20199;-83
2022/12/03 00:32:45;;;;;;;53.60;22.43;;;1.20;99.90;;;;;;5086420;28;20220;-85
2022/12/03 00:35:12;;;;;;;49.17;19.63;;;1.20;99.90;;;;;;5092899;28;20631;-83
2022/12/03 00:37:39;;;;;;;47.10;20.90;;;1.20;99.90;;;;;;5076423;28;20239;-84
2022/12/03 00:40:07;;;;;;;48.80;20.80;;;1.20;99.90;;;;;;5071356;28;20424;-84
2022/12/03 00:42:34;;;;;;;46.40;19.27;;;1.20;99.90;;;;;;5054391;28;20205;-86
2022/12/03 00:45:01;;;;;;;44.27;16.40;;;1.20;99.90;;;;;;5054300;28;20202;-87
2022/12/03 00:47:28;;;;;;;49.00;19.40;;;1.10;99.90;;;;;;5055204;28;20233;-86
2022/12/03 00:49:56;;;;;;;43.10;17.50;;;1.20;99.90;;;;;;5055276;28;20529;-85
2022/12/03 00:52:23;;;;;;;40.67;15.70;;;1.20;99.90;;;;;;5053161;28;20218;-86
2022/12/03 00:54:49;;;;;;;46.33;19.10;;;1.10;99.90;;;;;;5054438;28;20294;-86
2022/12/03 00:57:16;;;;;;;42.60;18.83;;;1.20;99.90;;;;;;5056810;28;20217;-86
2022/12/03 00:59:43;;;;;;;44.93;18.50;;;1.20;99.90;;;;;;5064281;28;20201;-85
2022/12/03 01:02:10;;;;;;;37.77;14.67;;;1.20;99.90;;;;;;5054092;28;20203;-86
2022/12/03 01:04:37;;;;;;;41.77;17.77;;;1.20;99.90;;;;;;5067172;28;20202;-86
2022/12/03 01:07:05;;;;;;;45.57;19.67;;;1.20;99.90;;;;;;5074661;28;20236;-85
2022/12/03 01:09:32;;;;;;;43.13;18.33;;;1.10;99.90;;;;;;5073722;28;20206;-85
2022/12/03 01:11:59;;;;;;;41.23;19.23;;;1.10;99.90;;;;;;5073931;28;20226;-86
2022/12/03 01:14:26;;;;;;;47.53;19.17;;;1.10;99.90;;;;;;5074477;28;20414;-87
2022/12/03 01:16:53;;;;;;;43.47;18.93;;;1.10;99.90;;;;;;5060938;28;20225;-86
2022/12/03 01:19:20;;;;;;;41.23;17.33;;;1.10;99.90;;;;;;5054877;28;20199;-85
2022/12/03 01:21:50;;;;;;;51.93;20.27;;;1.10;99.90;;;;;;5063691;28;20297;-86
2022/12/03 01:24:19;;;;;;;45.17;17.40;;;1.00;99.90;;;;;;5061612;28;20674;-88
2022/12/03 01:26:46;;;;;;;51.90;20.43;;;1.00;99.90;;;;;;5062986;28;20232;-86
2022/12/03 01:29:13;;;;;;;47.63;19.63;;;1.00;99.90;;;;;;5065803;28;20205;-86
2022/12/03 01:34:24;;;;;;;48.70;21.33;;;1.00;99.90;;;;;;5078044;28;20206;-86
2022/12/03 01:36:52;;;;;;;47.63;20.33;;;1.10;99.90;;;;;;5058302;28;20253;-86
2022/12/03 01:39:20;;;;;;;49.30;19.47;;;1.10;99.90;;;;;;5058914;28;20218;-87
2022/12/03 01:41:48;;;;;;;52.57;21.90;;;1.00;99.90;;;;;;5078232;28;20590;-85
2022/12/03 01:44:18;;;;;;;53.60;20.30;;;1.00;99.90;;;;;;5078362;28;20212;-86
2022/12/03 01:46:46;;;;;;;51.70;21.60;;;1.00;99.90;;;;;;5058865;28;20230;-85
2022/12/03 01:49:18;;;;;;;56.60;22.40;;;0.90;99.90;;;;;;5058397;28;20199;-85
2022/12/03 01:51:45;;;;;;;53.47;20.40;;;0.90;99.90;;;;;;5076199;28;20208;-86
2022/12/03 01:54:17;;;;;;;56.43;22.00;;;0.90;99.90;;;;;;5078463;28;20222;-86
2022/12/03 01:56:46;;;;;;;54.47;23.33;;;0.90;99.90;;;;;;5060567;28;20239;-86
2022/12/03 01:59:15;;;;;;;61.57;24.00;;;0.90;99.90;;;;;;5057321;28;20211;-86
2022/12/03 02:01:42;;;;;;;64.77;25.10;;;0.90;99.90;;;;;;5059426;28;20199;-86
2022/12/03 02:04:13;;;;;;;55.97;22.97;;;1.00;99.90;;;;;;5057853;28;20243;-87
2022/12/03 02:06:40;;;;;;;59.07;23.23;;;0.90;99.90;;;;;;5073528;28;20279;-86
2022/12/03 02:09:07;;;;;;;56.67;23.17;;;0.90;99.90;;;;;;5077530;28;20236;-88
2022/12/03 02:11:37;;;;;;;55.07;22.27;;;0.90;99.90;;;;;;5064673;28;20205;-87
2022/12/03 02:14:10;;;;;;;54.73;22.30;;;0.90;99.90;;;;;;5069947;28;20305;-86
2022/12/03 02:16:37;;;;;;;51.77;21.83;;;0.90;99.90;;;;;;5077783;28;20230;-84
2022/12/03 02:19:08;;;;;;;57.03;24.10;;;1.00;99.90;;;;;;5064982;28;20194;-87
2022/12/03 02:21:46;;;;;;;60.10;23.23;;;0.90;99.90;;;;;;5057304;28;20203;-86
2022/12/03 02:24:22;;;;;;;51.10;22.20;;;0.90;99.90;;;;;;5069936;28;20198;-86
2022/12/03 02:26:51;;;;;;;52.80;22.57;;;0.90;99.90;;;;;;5077843;28;20236;-86
2022/12/03 02:29:17;;;;;;;55.47;22.33;;;1.00;99.90;;;;;;5064279;28;20674;-86
2022/12/03 02:31:45;;;;;;;45.77;19.57;;;1.00;99.90;;;;;;5074836;28;20198;-87
2022/12/03 02:34:26;;;;;;;52.23;21.50;;;0.90;99.90;;;;;;5076463;28;20749;-86
2022/12/03 02:36:53;;;;;;;52.40;21.23;;;1.00;99.90;;;;;;5077243;28;20232;-86
2022/12/03 02:39:20;;;;;;;51.27;21.00;;;1.00;99.90;;;;;;5065455;28;20582;-86
2022/12/03 02:44:32;;;;;;;58.60;22.03;;;0.90;99.90;;;;;;5068849;28;20281;-88
2022/12/03 02:47:00;;;;;;;55.40;22.80;;;0.90;99.90;;;;;;5066960;28;20224;-87
2022/12/03 02:49:27;;;;;;;54.90;21.07;;;0.90;99.90;;;;;;5065047;28;20199;-87
2022/12/03 02:51:54;;;;;;;52.07;22.40;;;0.90;99.90;;;;;;5075356;28;20194;-86
2022/12/03 02:54:21;;;;;;;52.97;22.63;;;0.90;99.90;;;;;;5077586;28;20228;-86
2022/12/03 02:56:48;;;;;;;49.77;21.43;;;0.90;99.90;;;;;;5075542;28;20337;-86
2022/12/03 02:59:15;;;;;;;48.10;19.93;;;0.90;99.90;;;;;;5069781;28;20198;-85
2022/12/03 03:01:43;;;;;;;55.73;20.97;;;0.90;99.90;;;;;;5075239;28;20202;-87
2022/12/03 03:04:10;;;;;;;52.17;20.73;;;0.90;99.90;;;;;;5061456;28;20674;-86
2022/12/03 03:06:37;;;;;;;51.07;21.17;;;0.90;99.90;;;;;;5057377;28;20237;-86
2022/12/03 03:09:04;;;;;;;52.07;20.33;;;0.90;99.90;;;;;;5059621;28;20297;-87
2022/12/03 03:11:31;;;;;;;53.40;20.97;;;0.90;99.90;;;;;;5054811;28;20209;-88
2022/12/03 03:13:58;;;;;;;47.87;19.67;;;0.90;99.90;;;;;;5054834;28;20226;-86
2022/12/03 03:16:25;;;;;;;52.40;20.60;;;0.90;99.90;;;;;;5055520;28;20227;-86
2022/12/03 03:18:53;;;;;;;47.00;17.90;;;0.90;99.90;;;;;;5055236;28;20203;-87
2022/12/03 03:21:20;;;;;;;44.60;17.97;;;0.90;99.90;;;;;;5056495;28;20654;-85
2022/12/03 03:23:47;;;;;;;48.07;19.13;;;0.90;99.90;;;;;;5054920;28;20198;-86
2022/12/03 03:26:15;;;;;;;45.40;18.50;;;0.90;99.90;;;;;;5055353;28;20225;-86
2022/12/03 03:28:44;;;;;;;45.17;17.13;;;0.90;99.90;;;;;;5083896;28;20288;-86
2022/12/03 03:31:13;;;;;;;43.80;17.43;;;1.00;99.90;;;;;;5074022;28;20220;-85
2022/12/03 03:33:43;;;;;;;38.00;15.73;;;0.90;99.90;;;;;;5074949;28;20225;-86
2022/12/03 03:36:12;;;;;;;48.27;18.83;;;0.90;99.90;;;;;;5063056;28;20241;-86
2022/12/03 03:38:40;;;;;;;42.13;18.87;;;0.90;99.90;;;;;;5056063;28;20587;-86
2022/12/03 03:41:09;;;;;;;43.80;18.10;;;0.90;99.90;;;;;;5067663;28;20213;-86
2022/12/03 03:43:37;;;;;;;52.07;19.20;;;0.90;99.90;;;;;;5068993;28;20658;-85
2022/12/03 03:46:05;;;;;;;47.07;18.77;;;0.90;99.90;;;;;;5054366;28;20227;-84
2022/12/03 03:48:33;;;;;;;48.77;17.80;;;0.80;99.90;;;;;;5055930;28;20655;-85
2022/12/03 03:51:02;;;;;;;45.47;18.47;;;0.80;99.90;;;;;;5054317;28;20211;-87
2022/12/03 03:53:30;;;;;;;48.27;18.33;;;0.70;99.90;;;;;;5066260;28;20231;-86
2022/12/03 03:55:58;;;;;;;45.37;17.20;;;0.80;99.90;;;;;;5075862;28;20229;-87
2022/12/03 03:58:25;;;;;;;44.40;17.23;;;0.70;99.90;;;;;;5073834;28;20194;-86
2022/12/03 04:00:52;;;;;;;44.13;17.47;;;0.70;99.90;;;;;;5061904;28;20204;-86
2022/12/03 04:03:18;;;;;;;42.47;16.73;;;0.70;99.90;;;;;;5061639;28;20214;-86
2022/12/03 04:05:46;;;;;;;52.73;19.17;;;0.70;99.90;;;;;;5056303;28;20272;-86
2022/12/03 04:08:12;;;;;;;49.87;17.70;;;0.70;99.90;;;;;;5061812;28;20655;-85
2022/12/03 04:13:25;;;;;;;43.27;18.40;;;0.70;99.90;;;;;;5062498;28;20364;-86
2022/12/03 04:15:51;;;;;;;42.70;17.87;;;0.70;99.90;;;;;;5073274;28;20571;-86
2022/12/03 04:23:47;;;;;;;42.73;18.20;;;0.60;99.90;;;;;;5065602;28;20320;-86
2022/12/03 04:28:59;;;;;;;49.20;19.00;;;0.70;99.90;;;;;;5053836;28;20286;-86
2022/12/03 04:36:55;;;;;;;46.70;19.17;;;0.70;99.90;;;;;;5055018;28;20222;-82
2022/12/03 04:39:22;;;;;;;42.43;16.63;;;0.70;99.90;;;;;;5063376;28;20662;-85
2022/12/03 04:41:50;;;;;;;42.63;17.40;;;0.70;99.90;;;;;;5062574;28;20203;-85
2022/12/03 04:47:01;;;;;;;42.30;17.30;;;0.70;99.90;;;;;;5063374;28;20225;-85
2022/12/03 04:49:28;;;;;;;48.10;19.00;;;0.80;99.90;;;;;;5069607;28;20207;-85
2022/12/03 04:51:55;;;;;;;51.00;21.13;;;0.80;99.90;;;;;;5063926;28;20195;-85
2022/12/03 04:54:22;;;;;;;52.20;19.67;;;0.70;99.90;;;;;;5059339;28;20228;-85
2022/12/03 04:56:50;;;;;;;51.40;20.13;;;0.70;99.90;;;;;;5062375;28;20219;-85
2022/12/03 04:59:17;;;;;;;58.23;21.13;;;0.70;99.90;;;;;;5066490;28;20640;-84
2022/12/03 05:01:45;;;;;;;56.73;23.90;;;0.60;99.90;;;;;;5069204;28;20571;-86
2022/12/03 05:04:12;;;;;;;50.23;20.13;;;0.70;99.90;;;;;;5070677;28;20206;-86
2022/12/03 05:06:39;;;;;;;52.83;21.57;;;0.70;99.90;;;;;;5065212;28;20227;-86
2022/12/03 05:09:06;;;;;;;52.53;21.70;;;0.60;99.90;;;;;;5068157;28;20195;-86
2022/12/03 05:11:33;;;;;;;43.97;16.87;;;0.70;99.90;;;;;;5067276;28;20659;-87
2022/12/03 05:14:01;;;;;;;54.80;22.13;;;0.60;99.90;;;;;;5071332;28;20218;-85
2022/12/03 05:16:28;;;;;;;47.37;18.10;;;0.60;99.90;;;;;;5069260;28;20214;-85
2022/12/03 05:18:55;;;;;;;47.20;20.63;;;0.60;99.90;;;;;;5074629;28;20265;-85
2022/12/03 05:21:22;;;;;;;51.07;19.97;;;0.60;99.90;;;;;;5079828;28;20218;-85
2022/12/03 05:23:49;;;;;;;47.53;20.70;;;0.60;99.90;;;;;;5071144;28;20205;-85
2022/12/03 05:26:15;;;;;;;48.27;20.57;;;0.60;99.90;;;;;;5076446;28;20219;-87
2022/12/03 05:28:42;;;;;;;53.37;24.03;;;0.60;99.90;;;;;;5074752;28;20631;-84
2022/12/03 05:31:10;;;;;;;55.50;24.10;;;0.50;99.90;;;;;;5071462;28;20194;-83
2022/12/03 05:33:37;;;;;;;54.80;23.80;;;0.50;99.90;;;;;;5074814;28;20274;-84
2022/12/03 05:36:04;;;;;;;53.23;22.80;;;0.50;99.90;;;;;;5071388;28;20229;-87
2022/12/03 05:38:31;;;;;;;54.30;25.23;;;0.50;99.90;;;;;;5066982;28;20202;-85
2022/12/03 05:40:58;;;;;;;53.27;25.00;;;0.60;99.90;;;;;;5065537;28;20205;-84
2022/12/03 05:43:24;;;;;;;51.23;24.23;;;0.60;99.90;;;;;;5070019;28;20190;-85
2022/12/03 05:45:51;;;;;;;54.00;24.33;;;0.60;99.90;;;;;;5059738;28;20246;-85
2022/12/03 05:48:19;;;;;;;50.73;23.63;;;0.60;99.90;;;;;;5073371;28;20199;-85
2022/12/03 05:50:46;;;;;;;57.93;25.40;;;0.50;99.90;;;;;;5066596;28;20205;-85
2022/12/03 05:53:14;;;;;;;56.40;22.77;;;0.50;99.90;;;;;;5061472;28;20199;-85
2022/12/03 05:55:41;;;;;;;56.83;23.00;;;0.40;99.90;;;;;;5073660;28;20218;-85
2022/12/03 05:58:08;;;;;;;51.67;24.57;;;0.50;99.90;;;;;;5072943;28;20195;-84
2022/12/03 06:00:39;;;;;;;51.33;22.00;;;0.50;99.90;;;;;;5074008;28;20206;-83
2022/12/03 06:03:06;;;;;;;48.13;21.77;;;0.50;99.90;;;;;;5078513;28;20210;-85
2022/12/03 06:05:35;;;;;;;45.70;20.20;;;0.50;99.90;;;;;;5073010;28;20217;-86
2022/12/03 06:08:02;;;;;;;46.57;21.13;;;0.50;99.90;;;;;;5075340;28;20207;-82
2022/12/03 06:10:29;;;;;;;48.33;22.33;;;0.60;99.90;;;;;;5073975;28;20202;-85
2022/12/03 06:12:56;;;;;;;46.97;21.47;;;0.50;99.90;;;;;;5074139;28;20207;-85
2022/12/03 06:15:24;;;;;;;45.77;20.97;;;0.60;99.90;;;;;;5079943;28;20602;-83
2022/12/03 06:17:55;;;;;;;43.00;20.87;;;0.60;99.90;;;;;;5086331;28;20266;-84
2022/12/03 06:20:22;;;;;;;45.87;22.20;;;0.50;99.90;;;;;;5070797;28;20218;-84
2022/12/03 06:22:51;;;;;;;46.70;21.90;;;0.50;99.90;;;;;;5080569;28;20214;-84
2022/12/03 06:25:19;;;;;;;46.80;21.00;;;0.50;99.90;;;;;;5084924;28;20203;-84
2022/12/03 06:27:47;;;;;;;53.20;22.97;;;0.50;99.90;;;;;;5080832;28;20221;-86
2022/12/03 06:30:14;;;;;;;53.33;23.73;;;0.60;99.90;;;;;;5082480;28;20262;-84
2022/12/03 06:32:41;;;;;;;51.60;22.10;;;0.60;99.90;;;;;;5079446;28;20217;-84
2022/12/03 06:35:09;;;;;;;55.93;23.73;;;0.50;99.90;;;;;;5072340;28;20214;-84
2022/12/03 06:37:35;;;;;;;55.07;25.00;;;0.50;99.90;;;;;;5072106;28;20230;-84
2022/12/03 06:40:04;;;;;;;58.03;23.47;;;0.60;99.90;;;;;;5068029;28;20205;-83
2022/12/03 06:42:31;;;;;;;57.20;23.70;;;0.50;99.90;;;;;;5071798;28;20202;-84
2022/12/03 06:44:58;;;;;;;60.70;25.90;;;0.50;99.90;;;;;;5075032;28;20194;-87
2022/12/03 06:47:25;;;;;;;67.47;26.97;;;0.50;99.90;;;;;;5066763;28;20224;-86
2022/12/03 06:49:51;;;;;;;62.03;26.40;;;0.50;99.90;;;;;;5065557;28;20221;-82
2022/12/03 06:52:18;;;;;;;58.80;26.80;;;0.50;99.90;;;;;;5064632;28;20210;-85
2022/12/03 06:54:45;;;;;;;63.63;26.37;;;0.50;99.90;;;;;;5070216;28;20225;-85
2022/12/03 06:57:13;;;;;;;62.57;25.37;;;0.50;99.90;;;;;;5063827;28;20234;-85
2022/12/03 06:59:40;;;;;;;65.70;28.63;;;0.50;99.90;;;;;;5067769;28;20206;-85
2022/12/03 07:02:07;;;;;;;68.07;29.20;;;0.40;99.90;;;;;;5077296;28;20224;-85
2022/12/03 07:04:33;;;;;;;71.60;28.97;;;0.50;99.90;;;;;;5073271;28;20207;-84
2022/12/03 07:07:00;;;;;;;68.13;26.23;;;0.50;99.90;;;;;;5069785;28;20229;-82
2022/12/03 07:09:27;;;;;;;61.57;25.57;;;0.40;99.90;;;;;;5066421;28;20229;-84
2022/12/03 07:11:54;;;;;;;73.63;26.67;;;0.40;99.90;;;;;;5064788;28;20211;-83
2022/12/03 07:14:22;;;;;;;69.80;26.77;;;0.40;99.90;;;;;;5065370;28;20312;-83
2022/12/03 07:16:49;;;;;;;73.40;29.13;;;0.40;99.90;;;;;;5068266;28;20220;-83
2022/12/03 07:19:16;;;;;;;70.13;26.97;;;0.40;99.90;;;;;;5069921;28;20248;-84
2022/12/03 07:21:43;;;;;;;67.03;27.20;;;0.40;99.90;;;;;;5084694;28;20197;-84
2022/12/03 07:24:09;;;;;;;64.90;27.37;;;0.40;99.90;;;;;;5077251;28;20201;-83
2022/12/03 07:26:36;;;;;;;66.33;27.57;;;0.40;99.90;;;;;;5076631;28;20574;-85
2022/12/03 07:29:03;;;;;;;70.20;27.13;;;0.40;99.90;;;;;;5071839;28;20281;-85
2022/12/03 07:31:32;;;;;;;66.43;26.87;;;0.40;99.90;;;;;;5056748;28;20293;-86
2022/12/03 07:33:58;;;;;;;62.90;25.33;;;0.40;99.90;;;;;;5063865;28;20230;-86
2022/12/03 07:36:25;;;;;;;77.43;28.47;;;0.40;99.90;;;;;;5075056;28;20222;-85
2022/12/03 07:38:52;;;;;;;63.43;26.00;;;0.40;99.90;;;;;;5066476;28;20205;-85
2022/12/03 07:41:19;;;;;;;67.00;28.63;;;0.30;99.90;;;;;;5075029;28;20206;-87
2022/12/03 07:43:45;;;;;;;72.53;29.77;;;0.30;99.90;;;;;;5060130;28;20218;-87
2022/12/03 07:46:12;;;;;;;69.23;27.00;;;0.40;99.90;;;;;;5055903;28;20219;-86
2022/12/03 07:48:40;;;;;;;79.73;29.63;;;0.30;99.90;;;;;;5067348;28;20206;-86
2022/12/03 07:51:07;;;;;;;65.53;27.13;;;0.30;99.90;;;;;;5065896;28;20588;-86
2022/12/03 07:53:34;;;;;;;80.23;31.13;;;0.30;99.90;;;;;;5074633;28;20228;-85
2022/12/03 07:56:02;;;;;;;70.00;28.83;;;0.30;99.90;;;;;;5069885;28;20218;-86
2022/12/03 07:58:29;;;;;;;67.90;29.03;;;0.30;99.90;;;;;;5065422;28;20204;-84
2022/12/03 08:00:56;;;;;;;71.33;28.70;;;0.30;99.90;;;;;;5072643;28;20207;-85
2022/12/03 08:03:23;;;;;;;81.53;28.80;;;0.30;99.90;;;;;;5059929;28;20222;-84
2022/12/03 08:05:51;;;;;;;75.80;29.27;;;0.20;99.90;;;;;;5060867;28;20209;-84
2022/12/03 08:08:18;;;;;;;71.80;25.90;;;0.30;99.90;;;;;;5062761;28;20206;-83
2022/12/03 08:10:44;;;;;;;74.53;28.80;;;0.20;99.90;;;;;;5068455;28;20229;-85
2022/12/03 08:13:14;;;;;;;80.13;32.13;;;0.10;99.90;;;;;;5057860;28;20255;-85
2022/12/03 08:15:41;;;;;;;74.70;28.47;;;0.20;99.90;;;;;;5055173;28;20252;-86
2022/12/03 08:18:15;;;;;;;73.90;28.27;;;0.20;99.90;;;;;;5054719;28;20203;-86
2022/12/03 08:20:55;;;;;;;77.47;31.10;;;0.10;99.90;;;;;;5067880;28;20211;-85
2022/12/03 08:23:25;;;;;;;83.97;32.77;;;0.30;99.90;;;;;;5056391;28;20201;-85
2022/12/03 08:25:53;;;;;;;79.97;31.97;;;0.30;99.90;;;;;;5073272;28;20218;-85
2022/12/03 08:28:21;;;;;;;79.00;31.07;;;0.30;99.90;;;;;;5065278;28;20213;-86
2022/12/03 08:30:58;;;;;;;82.93;31.60;;;0.30;99.90;;;;;;5055096;28;20202;-86
2022/12/03 08:33:28;;;;;;;80.83;32.53;;;0.30;99.90;;;;;;5054213;28;20256;-87
2022/12/03 08:35:55;;;;;;;87.93;31.67;;;0.30;99.90;;;;;;5053985;28;20234;-86
2022/12/03 08:38:24;;;;;;;80.57;31.37;;;0.30;99.90;;;;;;5072047;28;20571;-86
2022/12/03 08:40:54;;;;;;;90.37;34.17;;;0.20;99.90;;;;;;5066046;28;20195;-86
2022/12/03 08:43:24;;;;;;;88.93;34.27;;;0.30;99.90;;;;;;5068775;28;20293;-85
2022/12/03 08:45:52;;;;;;;78.67;31.70;;;0.30;99.90;;;;;;5058127;28;20225;-86
2022/12/03 08:48:33;;;;;;;83.03;31.57;;;0.30;99.90;;;;;;5057750;28;20221;-85
2022/12/03 08:51:04;;;;;;;84.13;31.50;;;0.20;99.90;;;;;;5073125;28;20202;-85
2022/12/03 08:53:35;;;;;;;79.03;31.87;;;0.20;99.90;;;;;;5077385;28;20293;-86
2022/12/03 08:56:05;;;;;;;79.90;31.33;;;0.20;99.90;;;;;;5059961;28;20237;-86
2022/12/03 08:58:40;;;;;;;81.23;32.23;;;0.20;99.90;;;;;;5056818;28;20211;-86
2022/12/03 09:01:34;;;;;;;85.13;32.33;;;0.20;99.90;;;;;;5072997;28;20255;-86
2022/12/03 09:04:15;;;;;;;74.80;30.50;;;0.20;99.90;;;;;;5076222;28;20216;-85
2022/12/03 09:06:42;;;;;;;81.80;32.17;;;0.20;99.90;;;;;;5056414;28;20238;-85
2022/12/03 09:09:10;;;;;;;86.40;32.93;;;0.20;99.90;;;;;;5056946;28;20203;-85
2022/12/03 09:11:37;;;;;;;76.73;31.47;;;0.20;99.90;;;;;;5061003;28;20213;-84
2022/12/03 09:14:04;;;;;;;81.60;31.73;;;0.20;99.90;;;;;;5072492;28;20216;-85
2022/12/03 09:16:31;;;;;;;71.33;30.33;;;0.10;99.90;;;;;;5075110;28;20221;-85
2022/12/03 09:18:58;;;;;;;76.67;31.57;;;0.10;99.90;;;;;;5063434;28;20210;-83
2022/12/03 09:21:25;;;;;;;78.47;30.73;;;0.10;99.90;;;;;;5070725;28;20198;-83
2022/12/03 09:23:52;;;;;;;70.77;31.03;;;0.10;99.90;;;;;;5060643;28;20219;-83
2022/12/03 09:26:20;;;;;;;76.20;30.53;;;0.10;99.90;;;;;;5062039;28;20226;-83
2022/12/03 09:28:47;;;;;;;83.70;34.67;;;0.20;99.90;;;;;;5075671;28;20563;-84
2022/12/03 09:31:14;;;;;;;84.83;33.47;;;0.20;99.90;;;;;;5071104;28;20206;-89
2022/12/03 09:33:41;;;;;;;77.27;31.90;;;0.20;99.90;;;;;;5061610;28;20209;-85
2022/12/03 09:36:08;;;;;;;72.87;31.80;;;0.10;99.90;;;;;;5061971;28;20304;-84
2022/12/03 09:38:35;;;;;;;74.23;32.63;;;0.10;99.90;;;;;;5063738;28;20206;-83
2022/12/03 09:41:02;;;;;;;74.40;32.70;;;0.10;99.90;;;;;;5065464;28;20202;-85
2022/12/03 09:43:32;;;;;;;81.73;34.23;;;0.10;99.90;;;;;;5069908;28;20209;-86
2022/12/03 09:46:00;;;;;;;78.53;33.30;;;0.10;99.90;;;;;;5069783;28;20258;-86
2022/12/03 09:48:27;;;;;;;76.20;33.13;;;0.10;99.90;;;;;;5078218;28;20209;-86
2022/12/03 09:50:53;;;;;;;80.97;31.93;;;0.10;99.90;;;;;;5065504;28;20207;-86
2022/12/03 09:53:24;;;;;;;77.70;33.23;;;0.10;99.90;;;;;;5067773;28;20674;-85
2022/12/03 09:55:51;;;;;;;72.83;33.13;;;0.10;99.90;;;;;;5065880;28;20226;-85
2022/12/03 09:58:19;;;;;;;74.17;32.27;;;0.20;99.90;;;;;;5066953;28;20211;-86
2022/12/03 10:00:50;;;;;;;82.50;32.77;;;0.20;99.90;;;;;;5062637;28;20200;-86
2022/12/03 10:03:20;;;;;;;83.67;34.07;;;0.10;99.90;;;;;;5058159;28;20218;-85
2022/12/03 10:05:47;;;;;;;71.73;30.30;;;0.10;99.90;;;;;;5070268;28;20584;-85
2022/12/03 10:08:19;;;;;;;74.27;32.30;;;0.10;99.90;;;;;;5068214;28;20678;-84
2022/12/03 10:10:47;;;;;;;77.87;34.07;;;0.10;99.90;;;;;;5070210;28;20209;-85
2022/12/03 10:13:23;;;;;;;73.57;32.63;;;0.10;99.90;;;;;;5069388;28;20203;-84
2022/12/03 10:15:51;;;;;;;70.53;32.13;;;0.10;99.90;;;;;;5069106;28;20226;-84
2022/12/03 10:18:21;;;;;;;74.10;31.63;;;0.10;99.90;;;;;;5062401;28;20209;-85
2022/12/03 10:20:48;;;;;;;76.67;32.63;;;0.20;99.90;;;;;;5068209;28;20209;-86
2022/12/03 10:23:21;;;;;;;77.53;31.77;;;0.30;99.90;;;;;;5065633;28;20199;-86
2022/12/03 10:25:52;;;;;;;71.97;30.67;;;0.20;99.90;;;;;;5057267;28;20219;-84
2022/12/03 10:28:30;;;;;;;65.00;29.77;;;0.10;99.90;;;;;;5070934;28;20708;-85
2022/12/03 10:30:59;;;;;;;82.77;35.10;;;0.20;99.90;;;;;;5061457;28;20290;-85
2022/12/03 10:33:32;;;;;;;78.03;34.13;;;0.20;99.90;;;;;;5071452;28;20213;-85
2022/12/03 10:36:16;;;;;;;72.60;32.03;;;0.20;99.90;;;;;;5067892;28;20226;-85
2022/12/03 10:38:43;;;;;;;75.50;31.87;;;0.20;99.90;;;;;;5063224;28;20195;-85
2022/12/03 10:41:22;;;;;;;75.17;32.33;;;0.20;99.90;;;;;;5056870;28;20195;-86
2022/12/03 10:43:48;;;;;;;74.73;32.20;;;0.30;99.90;;;;;;5062693;28;20194;-87
2022/12/03 10:46:19;;;;;;;72.60;31.23;;;0.30;99.90;;;;;;5064501;28;20222;-85
2022/12/03 10:49:06;;;;;;;84.60;33.53;;;0.30;99.90;;;;;;5068762;28;20205;-85
2022/12/03 10:51:33;;;;;;;75.07;32.50;;;0.30;99.90;;;;;;5065046;28;20212;-85
2022/12/03 10:54:01;;;;;;;79.70;32.23;;;0.20;99.90;;;;;;5065351;28;20207;-85
2022/12/03 10:56:28;;;;;;;74.57;31.30;;;0.20;99.90;;;;;;5068447;28;20226;-85
2022/12/03 10:58:55;;;;;;;79.33;33.90;;;0.20;99.90;;;;;;5064401;28;20208;-85
2022/12/03 11:01:25;;;;;;;75.80;35.33;;;0.20;99.90;;;;;;5066115;28;20214;-85
2022/12/03 11:03:53;;;;;;;77.53;34.40;;;0.30;99.90;;;;;;5060458;28;20210;-85
2022/12/03 11:06:22;;;;;;;74.37;34.80;;;0.20;99.90;;;;;;5065085;28;20695;-84
2022/12/03 11:08:51;;;;;;;79.43;32.53;;;0.20;99.90;;;;;;5071615;28;20205;-85
2022/12/03 11:11:21;;;;;;;75.90;34.03;;;0.20;99.90;;;;;;5069751;28;20746;-85
2022/12/03 11:13:51;;;;;;;71.00;32.30;;;0.30;99.90;;;;;;5063707;28;20211;-85
2022/12/03 11:17:05;;;;;;;76.87;34.97;;;0.30;99.90;;;;;;5070236;28;20226;-85
2022/12/03 11:19:46;;;;;;;69.70;31.43;;;0.30;99.90;;;;;;5003258;28;20210;-85
2022/12/03 11:22:28;;;;;;;78.83;35.97;;;0.30;99.90;;;;;;5064446;28;20213;-84
2022/12/03 11:25:30;;;;;;;75.83;34.87;;;0.40;99.90;;;;;;5062731;28;20230;-84
2022/12/03 11:28:32;;;;;;;70.20;31.87;;;0.30;99.90;;;;;;5065456;28;20553;-85
2022/12/03 11:31:01;;;;;;;67.87;33.53;;;0.40;99.90;;;;;;5057752;28;20206;-85
2022/12/03 11:33:29;;;;;;;75.07;34.33;;;0.40;99.90;;;;;;5059970;28;20723;-85
2022/12/03 11:36:18;;;;;;;76.03;35.60;;;0.40;99.90;;;;;;5061009;28;20305;-85
2022/12/03 11:38:56;;;;;;;69.57;34.30;;;0.40;99.90;;;;;;5064800;28;20210;-85
2022/12/03 11:41:26;;;;;;;72.83;34.70;;;0.40;99.90;;;;;;5063188;28;20206;-85
2022/12/03 11:44:28;;;;;;;71.77;35.50;;;0.40;99.90;;;;;;5062908;28;20205;-85
2022/12/03 11:46:57;;;;;;;73.10;34.10;;;0.50;99.90;;;;;;5063665;28;20244;-84
2022/12/03 11:49:39;;;;;;;70.77;31.93;;;0.40;99.90;;;;;;5063013;28;20201;-85
2022/12/03 11:52:27;;;;;;;71.27;29.80;;;0.50;99.90;;;;;;5065500;28;20209;-85
2022/12/03 11:54:58;;;;;;;73.43;33.23;;;0.40;99.90;;;;;;5069854;28;20687;-84
2022/12/03 11:57:31;;;;;;;66.87;30.03;;;0.50;99.90;;;;;;5060573;28;20218;-83
2022/12/03 12:00:00;;;;;;;72.37;32.33;;;0.40;99.90;;;;;;5064401;28;20203;-84
2022/12/03 12:02:27;;;;;;;67.00;30.70;;;0.40;99.90;;;;;;5062448;28;20247;-84
2022/12/03 12:04:54;;;;;;;75.97;32.77;;;0.50;99.90;;;;;;5059104;28;20214;-84
2022/12/03 12:07:35;;;;;;;67.93;31.43;;;0.50;99.90;;;;;;5063653;28;20223;-85
2022/12/03 12:10:03;;;;;;;66.43;30.80;;;0.40;99.90;;;;;;5060887;28;20241;-86
2022/12/03 12:12:36;;;;;;;72.07;31.97;;;0.40;99.90;;;;;;5060596;28;20208;-84
2022/12/03 12:15:42;;;;;;;73.17;31.63;;;0.40;99.90;;;;;;5065285;28;20655;-86
2022/12/03 12:18:34;;;;;;;72.00;33.67;;;0.40;99.90;;;;;;5062152;28;20199;-86
2022/12/03 12:21:34;;;;;;;70.73;32.50;;;0.40;99.90;;;;;;5061795;28;20202;-85
2022/12/03 12:24:35;;;;;;;64.80;31.00;;;0.30;99.90;;;;;;5063122;28;20207;-85
2022/12/03 12:27:04;;;;;;;67.50;30.67;;;0.40;99.90;;;;;;5065128;28;20250;-85
2022/12/03 12:29:31;;;;;;;70.77;32.27;;;0.40;99.90;;;;;;5060002;28;20206;-85
2022/12/03 12:32:06;;;;;;;71.83;33.73;;;0.40;99.90;;;;;;5060765;28;20206;-85
2022/12/03 12:34:33;;;;;;;70.03;32.47;;;0.40;99.90;;;;;;5061359;28;21263;-85
2022/12/03 12:37:00;;;;;;;68.33;31.10;;;0.50;99.90;;;;;;5058599;28;20690;-85
2022/12/03 12:39:27;;;;;;;70.10;33.10;;;0.50;99.90;;;;;;5060483;28;20194;-85
2022/12/03 12:41:55;;;;;;;74.60;33.30;;;0.50;99.90;;;;;;5063280;28;20209;-85
2022/12/03 12:44:25;;;;;;;77.03;33.47;;;0.50;99.90;;;;;;5066073;28;20228;-87
2022/12/03 12:46:53;;;;;;;72.93;31.93;;;0.50;99.90;;;;;;5065969;28;20265;-85
2022/12/03 12:49:25;;;;;;;70.77;31.33;;;0.50;99.90;;;;;;5076244;28;20937;-84
2022/12/03 12:51:53;;;;;;;67.00;30.83;;;0.50;99.90;;;;;;5072021;28;20199;-85
2022/12/03 12:54:20;;;;;;;77.87;31.27;;;0.50;99.90;;;;;;5065254;28;20225;-85
2022/12/03 12:56:49;;;;;;;68.20;30.30;;;0.50;99.90;;;;;;5065614;28;20248;-86
2022/12/03 12:59:19;;;;;;;62.50;27.10;;;0.50;99.90;;;;;;5067424;28;20205;-85
2022/12/03 13:01:47;;;;;;;66.83;31.67;;;0.40;99.90;;;;;;5056257;28;20628;-85
2022/12/03 13:04:16;;;;;;;68.10;31.90;;;0.50;99.90;;;;;;5061034;28;20215;-85
2022/12/03 13:06:44;;;;;;;66.10;31.33;;;0.50;99.90;;;;;;5064849;28;20222;-84
2022/12/03 13:09:16;;;;;;;67.53;31.83;;;0.50;99.90;;;;;;5062324;28;20917;-84
2022/12/03 13:11:45;;;;;;;66.00;31.87;;;0.50;99.90;;;;;;5065398;28;20205;-85